Flight Track Log - Related Links

Times and Time Zones

All times are in EDT time to prevent confusion due to time zone crossing. See the QXE2222 flight status page for this flight to view local times or setup timezone preferences in your user account.


Time Position Orientation Groundspeed Altitude Reporting Facility
EDT Latitude Longitude Course Direction KTS MPH feet Rate Location/Type
Sat 02:59:00 PM 44.6405 -121.5071 325° Northwest  Level FlightAware Approximate
Sat 03:00:00 PM 44.7052 -121.5718 325° Northwest  Level FlightAware Approximate
Sat 03:01:00 PM 44.7698 -121.6365 325° Northwest  Level FlightAware Approximate
Sat 03:02:00 PM 44.8345 -121.7012 325° Northwest  Level FlightAware Approximate
Sat 03:03:00 PM 44.8993 -121.7659 325° Northwest  Level FlightAware Approximate
Sat 03:04:00 PM 44.9644 -121.8298 327° Northwest  Level FlightAware Approximate
Sat 03:05:00 PM 45.0312 -121.8903 327° Northwest  Level FlightAware Approximate
Sat 03:06:00 PM 45.0979 -121.9511 327° Northwest  Level FlightAware Approximate
Sat 03:07:00 PM 45.1638 -122.0137 325° Northwest  Level FlightAware Approximate
Sat 03:08:00 PM 45.2286 -122.0786 325° Northwest  Level FlightAware Approximate
Sat 03:09:00 PM 45.2935 -122.1434 325° Northwest  Level FlightAware Approximate
Sat 03:10:00 PM 45.3585 -122.2082 325° Northwest  Level FlightAware Approximate
Sat 03:11:00 PM 45.4234 -122.2731 325° Northwest  Level FlightAware Approximate
Sat 03:12:00 PM 45.4883 -122.3382 325° Northwest  Level FlightAware Approximate
Sat 03:13:00 PM 45.5533 -122.4031 325° Northwest  Level FlightAware Approximate
Sat 03:14:00 PM 45.6184 -122.4680 325° Northwest  Level FlightAware Approximate
Sat 03:15:00 PM 45.6833 -122.5331 325° Northwest  Level FlightAware Approximate
Sat 03:16:00 PM 45.7514 -122.5867 353° North  Level FlightAware Approximate
Sat 03:17:00 PM 45.8301 -122.6014 353° North  Level FlightAware Approximate
Sat 03:18:00 PM 45.9088 -122.6162 353° North  Level FlightAware Approximate
Sat 03:19:00 PM 45.9874 -122.6310 353° North  Level FlightAware Approximate
Sat 03:20:00 PM 46.0657 -122.6497 350° North  Level FlightAware Approximate
Sat 03:21:00 PM 46.1439 -122.6693 350° North  Level FlightAware Approximate
Sat 03:22:00 PM 46.2220 -122.6888 350° North  Level FlightAware Approximate
Sat 03:23:00 PM 46.2998 -122.7111 347° North  Level FlightAware Approximate
Sat 03:24:00 PM 46.3787 -122.7167 North  Level FlightAware Approximate
Sat 03:25:00 PM 46.4580 -122.7144 North  Level FlightAware Approximate
Sat 03:26:00 PM 46.5372 -122.7072 North  Level FlightAware Approximate
Sat 03:27:00 PM 46.6164 -122.7000 North  Level FlightAware Approximate
Sat 03:28:00 PM 46.6957 -122.7000 North  Level FlightAware Approximate
Sat 03:29:00 PM 46.7750 -122.7000 North  Level FlightAware Approximate
Sat 03:30:00 PM 46.8449 -122.6551 34° Northeast  Level FlightAware Approximate
Sat 03:31:00 PM 46.9058 -122.5812 42° Northeast  Level FlightAware Approximate
Sat 03:32:00 PM 46.9754 -122.5290 19° North  Level FlightAware Approximate
Sat 03:33:00 PM 47.0526 -122.5035 10° North  Level FlightAware Approximate
Sat 03:34:00 PM 47.1296 -122.4774 North  Level FlightAware Approximate
Sat 03:35:00 PM 47.2084 -122.4667 North  Level FlightAware Approximate
Sat 03:36:00 PM 47.2868 -122.4500 North  Level FlightAware Approximate
Sat 03:37:00 PM 47.3661 -122.4500 North  Level FlightAware Approximate
Sat 03:37:54 PM 47.2853 -122.3175 132° Southeast 219 252 3,500  Level Seattle Center
Sat 03:38:00 PM 47.4454 -122.4500 North  Level FlightAware Approximate
Sat 03:39:00 PM 47.4914 -122.4156 110° East  Level FlightAware Approximate
Sat 03:40:00 PM 47.4461 -122.3213 132° Southeast  Level FlightAware Approximate
Sat 03:40:00 PM 47.4439 -122.3120 North  Level Estimated
Sat 03:41:00 PM 47.4499 -122.3118 132° Southeast  Level Estimated
Sat 03:42:00 PM 47.4499 -122.3118 132° Southeast  Level Estimated
Sat 03:43:00 PM 47.4499 -122.3118 132° Southeast  Level Estimated
Sat 03:47:00 PM 47.4499 -122.3118 132° Southeast  Level Estimated
Sat 03:48:00 PM 47.4499 -122.3118 132° Southeast  Level Estimated
Sat 03:49:00 PM 47.4499 -122.3118 132° Southeast  Level Estimated
Sat 03:50:00 PM 47.4499 -122.3118 132° Southeast  Level Estimated
Sat 03:51:00 PM 47.4499 -122.3118 132° Southeast  Level Estimated
Sat 03:52:00 PM 47.4499 -122.3118 132° Southeast  Level Estimated
Sat 03:53:00 PM 47.4499 -122.3118 132° Southeast  Level Estimated
Sat 03:54:00 PM 47.4499 -122.3118 132° Southeast  Level Estimated
Sat 03:55:00 PM 47.4499 -122.3118 132° Southeast  Level Estimated
Sat 03:56:00 PM 47.4499 -122.3118 132° Southeast  Level Estimated

Login

Don't have an account? Register now (free) for customized features, flight alerts, and more!